Anderson, South Dakota
Current Conditions -  °F | °C
As of 5:53 AM on Tuesday 21 Oct 2014 (Local Time) from KHEI Reporting Station
Clear Clear  
Wind Chill:   Ceiling: Unl
Heat Index:   Visibility: 10mi
Dew Point:   Wind: 5mph
Humidity: 86%   Direction: 110°ESE
Pressure: 29.8"   Gusts: NA
Location:  45.2919°N, 102.298°W
Report Text: KHEI 211153Z AUTO 11004KT 10SM CLR 04/02 A2980 RMK AO2 SLP092 T00440022 10094 20033 56008
Loading
Personal Weather Stations






























Interactive Weather Map
Tropical Storm Tracking
New forecast layout! Learn more

10-Day Weather Forecast

Advertisements
Track Severe Weather on mobile